Time;durP1;ratioP1;P1;durP2;ratioP2;P2;SDS_P1;SDS_P2;PMS_P1;PMS_P2;Temp;Humidity;BMP_temperature;BMP_pressure;BME280_temperature;BME280_humidity;BME280_pressure;Samples;Min_cycle;Max_cycle;Signal;HPM_P1;HPM_P2
2023/10/25 00:00:11;;;;;;;;;;;;;;;13.55;100.00;99285.94;4994847;28;873;-60
2023/10/25 00:02:38;;;;;;;;;;;;;;;13.50;100.00;99280.88;4995182;28;941;-60
2023/10/25 00:05:04;;;;;;;;;;;;;;;13.53;100.00;99293.91;4994816;28;787;-60
2023/10/25 00:07:31;;;;;;;;;;;;;;;13.63;100.00;99287.31;4994677;28;869;-60
2023/10/25 00:10:00;;;;;;;;;;;;;;;13.71;100.00;99276.78;4994669;28;894;-60
2023/10/25 00:12:27;;;;;;;;;;;;;;;13.74;100.00;99269.56;4994245;28;807;-60
2023/10/25 00:14:54;;;;;;;;;;;;;;;13.71;100.00;99268.44;4994590;28;799;-60
2023/10/25 00:17:20;;;;;;;;;;;;;;;13.68;100.00;99252.66;4994555;28;1945;-60
2023/10/25 00:19:47;;;;;;;;;;;;;;;13.68;100.00;99253.44;4994588;28;852;-60
2023/10/25 00:22:14;;;;;;;;;;;;;;;13.73;100.00;99254.91;4994642;28;1371;-60
2023/10/25 00:24:41;;;;;;;;;;;;;;;13.73;100.00;99249.34;4994517;28;850;-60
2023/10/25 00:27:08;;;;;;;;;;;;;;;13.72;100.00;99253.38;4994669;28;788;-60
2023/10/25 00:29:34;;;;;;;;;;;;;;;13.69;100.00;99237.56;4994376;28;938;-60
2023/10/25 00:32:01;;;;;;;;;;;;;;;13.59;100.00;99227.50;4994328;28;809;-60
2023/10/25 00:34:28;;;;;;;;;;;;;;;13.51;100.00;99215.81;4994395;28;842;-60
2023/10/25 00:36:54;;;;;;;;;;;;;;;13.50;100.00;99205.91;4994085;28;1969;-60
2023/10/25 00:39:21;;;;;;;;;;;;;;;13.53;100.00;99205.06;4994289;28;859;-60
2023/10/25 00:41:47;;;;;;;;;;;;;;;13.53;100.00;99199.50;4994366;28;811;-60
2023/10/25 00:44:14;;;;;;;;;;;;;;;13.54;100.00;99198.28;4994111;28;886;-60
2023/10/25 00:46:42;;;;;;;;;;;;;;;13.55;100.00;99205.41;4994185;28;854;-60
2023/10/25 00:49:08;;;;;;;;;;;;;;;13.54;100.00;99208.63;4994009;28;823;-60
2023/10/25 00:51:35;;;;;;;;;;;;;;;13.52;100.00;99209.03;4994167;28;866;-60
2023/10/25 00:54:02;;;;;;;;;;;;;;;13.47;100.00;99209.59;4993944;28;855;-60
2023/10/25 00:56:31;;;;;;;;;;;;;;;13.36;100.00;99206.31;4993850;28;1958;-60
2023/10/25 00:58:59;;;;;;;;;;;;;;;13.34;100.00;99197.66;4976249;28;879;-60
2023/10/25 01:01:27;;;;;;;;;;;;;;;13.30;100.00;99197.72;4976551;28;1317;-60
2023/10/25 01:03:56;;;;;;;;;;;;;;;13.24;100.00;99188.34;4993561;28;1395;-60
2023/10/25 01:06:23;;;;;;;;;;;;;;;13.28;100.00;99195.38;4993852;28;844;-60
2023/10/25 01:08:51;;;;;;;;;;;;;;;13.40;100.00;99202.22;4993611;28;918;-60
2023/10/25 01:11:18;;;;;;;;;;;;;;;13.41;100.00;99209.31;4993553;28;807;-60
2023/10/25 01:13:44;;;;;;;;;;;;;;;13.36;100.00;99212.63;4993525;28;843;-60
2023/10/25 01:16:11;;;;;;;;;;;;;;;13.31;100.00;99227.03;4993342;28;1886;-60
2023/10/25 01:18:39;;;;;;;;;;;;;;;13.26;100.00;99236.63;4993343;28;1165;-60
2023/10/25 01:21:07;;;;;;;;;;;;;;;13.27;100.00;99235.44;4993433;28;971;-60
2023/10/25 01:23:33;;;;;;;;;;;;;;;13.33;100.00;99241.25;4992489;28;1243;-60
2023/10/25 01:26:00;;;;;;;;;;;;;;;13.39;100.00;99247.84;4993437;28;835;-60
2023/10/25 01:28:27;;;;;;;;;;;;;;;13.40;100.00;99243.88;4993390;28;882;-60
2023/10/25 01:30:54;;;;;;;;;;;;;;;13.44;100.00;99233.44;4993263;28;843;-60
2023/10/25 01:33:21;;;;;;;;;;;;;;;13.41;100.00;99236.31;4993203;28;808;-60
2023/10/25 01:35:48;;;;;;;;;;;;;;;13.36;100.00;99222.97;4992907;28;1975;-60
2023/10/25 01:38:14;;;;;;;;;;;;;;;13.33;100.00;99226.59;4993150;28;811;-60
2023/10/25 01:40:41;;;;;;;;;;;;;;;13.27;100.00;99218.78;4992977;28;866;-60
2023/10/25 01:43:07;;;;;;;;;;;;;;;13.21;100.00;99200.31;4993091;28;914;-60
2023/10/25 01:45:34;;;;;;;;;;;;;;;13.14;100.00;99204.03;4992930;28;867;-60
2023/10/25 01:48:01;;;;;;;;;;;;;;;13.07;100.00;99198.66;4993056;28;795;-60
2023/10/25 01:50:28;;;;;;;;;;;;;;;13.04;100.00;99197.53;4992807;28;878;-60
2023/10/25 01:52:54;;;;;;;;;;;;;;;13.04;100.00;99202.31;4992913;28;851;-60
2023/10/25 01:55:21;;;;;;;;;;;;;;;13.04;100.00;99203.09;4992862;28;1959;-60
2023/10/25 01:57:48;;;;;;;;;;;;;;;13.05;100.00;99192.75;4992940;28;811;-60
2023/10/25 02:00:15;;;;;;;;;;;;;;;12.98;100.00;99190.94;4975387;28;1375;-60
2023/10/25 02:02:42;;;;;;;;;;;;;;;12.85;100.00;99187.31;4992759;28;947;-60
2023/10/25 02:05:09;;;;;;;;;;;;;;;12.80;100.00;99196.94;4992698;28;811;-60
2023/10/25 02:07:36;;;;;;;;;;;;;;;12.75;100.00;99197.44;4992660;28;867;-60
2023/10/25 02:10:03;;;;;;;;;;;;;;;12.70;100.00;99209.06;4992941;28;827;-60
2023/10/25 02:12:29;;;;;;;;;;;;;;;12.86;100.00;99206.28;4992595;28;780;-60
2023/10/25 02:14:56;;;;;;;;;;;;;;;12.97;100.00;99196.94;4992635;28;795;-60
2023/10/25 02:17:23;;;;;;;;;;;;;;;12.99;100.00;99195.28;4992407;28;1958;-60
2023/10/25 02:19:49;;;;;;;;;;;;;;;12.99;100.00;99195.28;4992546;28;841;-60
2023/10/25 02:22:17;;;;;;;;;;;;;;;12.94;100.00;99204.13;4992145;28;1251;-60
2023/10/25 02:24:44;;;;;;;;;;;;;;;12.90;100.00;99199.88;4992722;28;906;-60
2023/10/25 02:27:10;;;;;;;;;;;;;;;12.87;100.00;99193.22;4992536;28;851;-60
2023/10/25 02:29:37;;;;;;;;;;;;;;;12.88;100.00;99192.00;4992384;28;866;-60
2023/10/25 02:32:07;;;;;;;;;;;;;;;12.85;100.00;99185.31;4992523;28;823;-60
2023/10/25 02:34:35;;;;;;;;;;;;;;;12.86;100.00;99189.63;4993984;28;831;-60
2023/10/25 02:37:02;;;;;;;;;;;;;;;12.93;100.00;99179.59;4996382;28;1910;-60
2023/10/25 02:39:29;;;;;;;;;;;;;;;12.96;100.00;99187.84;4996447;28;788;-60
2023/10/25 02:41:55;;;;;;;;;;;;;;;12.96;100.00;99187.06;4996407;28;835;-60
2023/10/25 02:44:21;;;;;;;;;;;;;;;12.95;100.00;99186.28;4996303;28;870;-60
2023/10/25 02:46:48;;;;;;;;;;;;;;;12.94;100.00;99190.25;4996188;28;898;-60
2023/10/25 02:49:15;;;;;;;;;;;;;;;12.96;100.00;99175.97;4996270;28;825;-60
2023/10/25 02:51:42;;;;;;;;;;;;;;;12.96;100.00;99178.75;4996169;28;804;-60
2023/10/25 02:54:08;;;;;;;;;;;;;;;13.00;100.00;99176.66;4996194;28;828;-60
2023/10/25 02:56:35;;;;;;;;;;;;;;;13.06;100.00;99178.47;4995960;28;1950;-60
2023/10/25 02:59:03;;;;;;;;;;;;;;;13.15;100.00;99185.41;4996100;28;835;-60
2023/10/25 03:01:29;;;;;;;;;;;;;;;13.19;100.00;99183.31;4995877;28;878;-60
2023/10/25 03:03:56;;;;;;;;;;;;;;;13.18;100.00;99181.75;4995943;28;835;-60
2023/10/25 03:06:23;;;;;;;;;;;;;;;13.14;100.00;99179.06;4978497;28;1350;-60
2023/10/25 03:08:50;;;;;;;;;;;;;;;13.08;100.00;99181.59;4995890;28;867;-60
2023/10/25 03:11:17;;;;;;;;;;;;;;;13.02;100.00;99177.00;4995861;28;849;-60
2023/10/25 03:13:43;;;;;;;;;;;;;;;12.99;100.00;99175.09;4995723;28;819;-60
2023/10/25 03:16:11;;;;;;;;;;;;;;;12.98;100.00;99156.91;4995769;28;1943;-60
2023/10/25 03:18:38;;;;;;;;;;;;;;;12.96;100.00;99151.00;4995686;28;859;-60
2023/10/25 03:21:05;;;;;;;;;;;;;;;12.88;100.00;99142.06;4995672;28;926;-60
2023/10/25 03:23:32;;;;;;;;;;;;;;;12.80;100.00;99160.88;4995311;28;1215;-60
2023/10/25 03:26:06;;;;;;;;;;;;;;;12.75;100.00;99152.31;4995918;28;808;-60
2023/10/25 03:28:33;;;;;;;;;;;;;;;12.73;100.00;99149.19;4995532;28;796;-60
2023/10/25 03:31:08;;;;;;;;;;;;;;;12.74;100.00;99153.50;4995729;28;862;-60
2023/10/25 03:33:36;;;;;;;;;;;;;;;12.80;100.00;99160.09;4995683;28;796;-60
2023/10/25 03:36:02;;;;;;;;;;;;;;;12.83;100.00;99167.56;4995523;28;1914;-60
2023/10/25 03:38:29;;;;;;;;;;;;;;;12.85;100.00;99154.81;4995528;28;796;-60
2023/10/25 03:41:06;;;;;;;;;;;;;;;12.90;100.00;99161.81;4995584;28;819;-60
2023/10/25 03:43:33;;;;;;;;;;;;;;;12.90;100.00;99152.72;4995244;28;816;-60
2023/10/25 03:46:04;;;;;;;;;;;;;;;12.89;100.00;99146.41;4994458;28;840;-60
2023/10/25 03:48:32;;;;;;;;;;;;;;;12.88;100.00;99147.63;4995242;28;831;-60
2023/10/25 03:50:59;;;;;;;;;;;;;;;12.85;100.00;99159.59;4995064;28;855;-60
2023/10/25 03:53:26;;;;;;;;;;;;;;;12.76;100.00;99153.84;4995051;28;858;-60
2023/10/25 03:55:55;;;;;;;;;;;;;;;12.77;100.00;99147.88;4994958;28;1955;-60
2023/10/25 03:58:21;;;;;;;;;;;;;;;12.81;100.00;99161.66;4995180;28;787;-60
2023/10/25 04:00:48;;;;;;;;;;;;;;;12.80;100.00;99166.44;4994953;28;867;-60
2023/10/25 04:03:14;;;;;;;;;;;;;;;12.76;100.00;99159.41;4994847;28;893;-60
2023/10/25 04:05:41;;;;;;;;;;;;;;;12.68;100.00;99156.03;4994839;28;839;-60
2023/10/25 04:08:08;;;;;;;;;;;;;;;12.56;100.00;99151.16;4994913;28;838;-60
2023/10/25 04:10:35;;;;;;;;;;;;;;;12.49;100.00;99148.56;4994882;28;854;-60
2023/10/25 04:13:01;;;;;;;;;;;;;;;12.38;100.00;99144.03;4994636;28;822;-60
2023/10/25 04:15:30;;;;;;;;;;;;;;;12.28;100.00;99136.75;4994728;28;1947;-60
2023/10/25 04:17:57;;;;;;;;;;;;;;;12.16;100.00;99135.44;4994615;28;863;-60
2023/10/25 04:20:23;;;;;;;;;;;;;;;12.03;100.00;99124.25;4994716;28;866;-60
2023/10/25 04:22:50;;;;;;;;;;;;;;;11.96;100.00;99118.84;4994579;28;1559;-60
2023/10/25 04:25:17;;;;;;;;;;;;;;;11.90;100.00;99119.78;4994515;28;917;-60
2023/10/25 04:27:43;;;;;;;;;;;;;;;11.86;100.00;99119.81;4994431;28;874;-60
2023/10/25 04:30:10;;;;;;;;;;;;;;;11.91;100.00;99113.81;4994369;28;862;-60
2023/10/25 04:32:36;;;;;;;;;;;;;;;11.98;100.00;99110.88;4994415;28;827;-61
2023/10/25 04:35:03;;;;;;;;;;;;;;;12.07;100.00;99120.59;4994378;28;848;-61
2023/10/25 04:37:30;;;;;;;;;;;;;;;12.13;100.00;99130.75;4994184;28;1902;-60
2023/10/25 04:39:57;;;;;;;;;;;;;;;12.16;100.00;99131.88;4994177;28;874;-61
2023/10/25 04:42:23;;;;;;;;;;;;;;;12.17;100.00;99116.81;4994084;28;945;-61
2023/10/25 04:44:50;;;;;;;;;;;;;;;12.15;100.00;99114.47;4994122;28;890;-61
2023/10/25 04:47:17;;;;;;;;;;;;;;;12.13;100.00;99107.81;4994091;28;886;-60
2023/10/25 04:49:43;;;;;;;;;;;;;;;12.09;100.00;99118.97;4976490;28;882;-60
2023/10/25 04:52:10;;;;;;;;;;;;;;;12.11;100.00;99118.53;4994037;28;905;-60
2023/10/25 04:54:36;;;;;;;;;;;;;;;12.15;100.00;99122.78;4993877;28;885;-60
2023/10/25 04:57:03;;;;;;;;;;;;;;;12.20;100.00;99119.50;4993759;28;1953;-60
2023/10/25 04:59:30;;;;;;;;;;;;;;;12.24;100.00;99120.19;4993939;28;812;-60
2023/10/25 05:01:56;;;;;;;;;;;;;;;12.26;100.00;99123.31;4993663;28;895;-61
2023/10/25 05:04:23;;;;;;;;;;;;;;;12.24;100.00;99122.19;4993801;28;859;-60
2023/10/25 05:06:49;;;;;;;;;;;;;;;12.21;100.00;99117.53;4993662;28;870;-61
2023/10/25 05:09:16;;;;;;;;;;;;;;;12.24;100.00;99122.19;4993638;28;803;-60
2023/10/25 05:11:48;;;;;;;;;;;;;;;12.26;100.00;99115.00;4993741;28;870;-61
2023/10/25 05:14:13;;;;;;;;;;;;;;;12.31;100.00;99110.16;4993605;28;831;-61
2023/10/25 05:16:40;;;;;;;;;;;;;;;12.37;100.00;99122.28;4993343;28;1887;-60
2023/10/25 05:19:07;;;;;;;;;;;;;;;12.46;100.00;99137.13;4993806;28;893;-61
2023/10/25 05:21:37;;;;;;;;;;;;;;;12.57;100.00;99139.66;4993561;28;1023;-61
2023/10/25 05:24:04;;;;;;;;;;;;;;;12.72;100.00;99137.31;4993079;28;1279;-60
2023/10/25 05:26:30;;;;;;;;;;;;;;;12.80;100.00;99124.84;4993428;28;784;-61
2023/10/25 05:28:57;;;;;;;;;;;;;;;12.91;100.00;99143.19;4975892;28;1264;-60
2023/10/25 05:31:26;;;;;;;;;;;;;;;12.98;100.00;99140.25;4993136;28;815;-61
2023/10/25 05:33:53;;;;;;;;;;;;;;;13.10;100.00;99150.66;4993247;28;823;-60
2023/10/25 05:36:19;;;;;;;;;;;;;;;13.19;100.00;99142.47;4993044;28;1918;-61
2023/10/25 05:38:46;;;;;;;;;;;;;;;13.29;100.00;99137.88;4993292;28;902;-61
2023/10/25 05:41:18;;;;;;;;;;;;;;;13.40;100.00;99132.84;4993050;28;851;-60
2023/10/25 05:43:49;;;;;;;;;;;;;;;13.51;100.00;99129.75;4993000;28;858;-60
2023/10/25 05:46:15;;;;;;;;;;;;;;;13.56;100.00;99132.00;4975613;28;1280;-61
2023/10/25 05:48:42;;;;;;;;;;;;;;;13.56;100.00;99128.44;4993030;28;871;-60
2023/10/25 05:51:09;;;;;;;;;;;;;;;13.61;100.00;99125.91;4993172;28;855;-60
2023/10/25 05:53:36;;;;;;;;;;;;;;;13.73;100.00;99129.94;4993234;28;871;-61
2023/10/25 05:56:02;;;;;;;;;;;;;;;13.82;100.00;99123.72;4993045;28;1953;-60
2023/10/25 05:58:30;;;;;;;;;;;;;;;13.87;100.00;99128.75;4992989;28;843;-60
2023/10/25 06:00:56;;;;;;;;;;;;;;;13.84;100.00;99137.97;4993039;28;800;-60
2023/10/25 06:03:25;;;;;;;;;;;;;;;13.83;100.00;99144.75;4992959;28;882;-61
2023/10/25 06:05:52;;;;;;;;;;;;;;;13.84;100.00;99133.19;4992810;28;807;-61
2023/10/25 06:08:18;;;;;;;;;;;;;;;13.81;100.00;99144.41;4992610;28;851;-61
2023/10/25 06:10:45;;;;;;;;;;;;;;;13.80;100.00;99131.72;4992689;28;878;-61
2023/10/25 06:13:12;;;;;;;;;;;;;;;13.87;100.00;99134.31;4993116;28;843;-61
2023/10/25 06:15:39;;;;;;;;;;;;;;;14.01;100.00;99128.31;4992568;28;1949;-61
2023/10/25 06:18:07;;;;;;;;;;;;;;;14.22;100.00;99137.25;4992890;28;800;-61
2023/10/25 06:20:34;;;;;;;;;;;;;;;14.41;100.00;99133.47;4992631;28;880;-60
2023/10/25 06:23:00;;;;;;;;;;;;;;;14.60;100.00;99134.50;4992262;28;1255;-60
2023/10/25 06:25:28;;;;;;;;;;;;;;;14.72;100.00;99132.91;4992651;28;819;-60
2023/10/25 06:27:57;;;;;;;;;;;;;;;14.80;100.00;99130.69;4992544;28;866;-61
2023/10/25 06:30:24;;;;;;;;;;;;;;;14.90;100.00;99121.97;4992312;28;815;-60
2023/10/25 06:32:51;;;;;;;;;;;;;;;15.01;100.00;99138.31;4992394;28;969;-61
2023/10/25 06:35:16;;;;;;;;;;;;;;;15.02;100.00;99141.88;4992423;28;863;-61
2023/10/25 06:37:43;;;;;;;;;;;;;;;15.08;100.00;99156.78;4992533;28;1974;-62
2023/10/25 06:40:10;;;;;;;;;;;;;;;15.16;100.00;99148.97;4992452;28;867;-60
2023/10/25 06:42:37;;;;;;;;;;;;;;;15.22;100.00;99142.38;4992283;28;823;-60
2023/10/25 06:45:04;;;;;;;;;;;;;;;15.30;100.00;99149.25;4992471;28;870;-60
2023/10/25 06:47:31;;;;;;;;;;;;;;;15.31;100.00;99153.59;4992338;28;835;-60
2023/10/25 06:49:57;;;;;;;;;;;;;;;15.48;100.00;99134.72;4992362;28;886;-62
2023/10/25 06:52:24;;;;;;;;;;;;;;;15.74;100.00;99131.81;4992315;28;855;-62
2023/10/25 06:54:50;;;;;;;;;;;;;;;15.87;100.00;99124.19;4992699;28;855;-60
2023/10/25 06:57:17;;;;;;;;;;;;;;;16.03;100.00;99128.75;4992322;28;1971;-60
2023/10/25 06:59:44;;;;;;;;;;;;;;;16.11;100.00;99130.03;4992367;28;906;-60
2023/10/25 07:02:30;;;;;;;;;;;;;;;16.12;100.00;99117.66;4974876;28;1241;-60
2023/10/25 07:05:01;;;;;;;;;;;;;;;16.22;100.00;99110.13;4990854;28;1070;-60
2023/10/25 07:07:30;;;;;;;;;;;;;;;16.27;100.00;99119.88;4992181;28;808;-60
2023/10/25 07:09:57;;;;;;;;;;;;;;;16.25;100.00;99116.78;4992021;28;871;-60
2023/10/25 07:12:23;;;;;;;;;;;;;;;16.27;100.00;99108.75;4992136;28;937;-61
2023/10/25 07:14:50;;;;;;;;;;;;;;;16.40;100.00;99112.19;4992012;28;816;-60
2023/10/25 07:17:16;;;;;;;;;;;;;;;16.59;100.00;99106.69;4992183;28;1894;-60
2023/10/25 07:19:43;;;;;;;;;;;;;;;16.70;100.00;99112.59;4992033;28;909;-60
2023/10/25 07:22:10;;;;;;;;;;;;;;;16.78;100.00;99101.94;4994699;28;906;-61
2023/10/25 07:24:37;;;;;;;;;;;;;;;16.84;100.00;99109.25;4995668;28;1486;-61
2023/10/25 07:27:04;;;;;;;;;;;;;;;16.97;100.00;99123.06;4995671;28;820;-60
2023/10/25 07:29:31;;;;;;;;;;;;;;;17.14;100.00;99126.34;4995447;28;831;-62
2023/10/25 07:31:58;;;;;;;;;;;;;;;17.26;100.00;99127.44;4995467;28;800;-61
2023/10/25 07:34:25;;;;;;;;;;;;;;;17.25;100.00;99123.88;4995625;28;862;-60
2023/10/25 07:36:51;;;;;;;;;;;;;;;17.33;100.00;99127.16;4995377;28;1918;-61
2023/10/25 07:39:18;;;;;;;;;;;;;;;17.56;100.00;99125.75;4995343;28;874;-61
2023/10/25 07:41:44;;;;;;;;;;;;;;;17.56;100.00;99120.16;4995516;28;874;-60
2023/10/25 07:44:10;;;;;;;;;;;;;;;17.80;100.00;99116.72;4995468;28;809;-60
2023/10/25 07:46:37;;;;;;;;;;;;;;;18.00;100.00;99116.22;4995392;28;874;-60
2023/10/25 07:49:04;;;;;;;;;;;;;;;18.11;100.00;99116.50;4995872;28;760;-59
2023/10/25 07:51:30;;;;;;;;;;;;;;;18.32;100.00;99117.50;4995290;28;1281;-60
2023/10/25 07:53:57;;;;;;;;;;;;;;;18.59;100.00;99115.84;4995064;28;852;-60
2023/10/25 07:56:24;;;;;;;;;;;;;;;18.64;100.00;99121.56;4994939;28;1951;-59
2023/10/25 07:58:50;;;;;;;;;;;;;;;18.71;100.00;99128.81;4994787;28;894;-60
2023/10/25 08:01:17;;;;;;;;;;;;;;;19.03;100.00;99129.28;4994920;28;839;-59
2023/10/25 08:03:43;;;;;;;;;;;;;;;19.43;100.00;99122.47;4994926;28;799;-59
2023/10/25 08:06:10;;;;;;;;;;;;;;;19.86;100.00;99123.78;4994870;28;847;-59
2023/10/25 08:08:38;;;;;;;;;;;;;;;20.20;100.00;99118.75;4994786;28;843;-60
2023/10/25 08:11:05;;;;;;;;;;;;;;;20.77;100.00;99117.59;4977247;28;1190;-59
2023/10/25 08:13:32;;;;;;;;;;;;;;;20.91;100.00;99104.75;4995051;28;827;-59
2023/10/25 08:16:00;;;;;;;;;;;;;;;20.43;100.00;99111.47;4994577;28;1959;-59
2023/10/25 08:18:27;;;;;;;;;;;;;;;20.02;100.00;99104.94;4994675;28;828;-59
2023/10/25 08:20:54;;;;;;;;;;;;;;;19.97;100.00;99104.38;4994500;28;978;-59
2023/10/25 08:23:21;;;;;;;;;;;;;;;19.90;100.00;99113.16;4994233;28;1251;-59
2023/10/25 08:25:47;;;;;;;;;;;;;;;19.66;100.00;99102.00;4994440;28;819;-59
2023/10/25 08:28:14;;;;;;;;;;;;;;;19.62;100.00;99112.63;4994363;28;886;-59
2023/10/25 08:30:40;;;;;;;;;;;;;;;19.57;100.00;99105.66;4994353;28;807;-60
2023/10/25 08:33:07;;;;;;;;;;;;;;;19.45;100.00;99106.72;4994098;28;816;-59
2023/10/25 08:35:33;;;;;;;;;;;;;;;19.41;100.00;99108.16;4976636;28;1914;-59
2023/10/25 08:38:00;;;;;;;;;;;;;;;19.58;100.00;99100.84;4976853;28;1150;-59
2023/10/25 08:40:26;;;;;;;;;;;;;;;19.81;100.00;99104.84;4994481;28;792;-60
2023/10/25 08:42:57;;;;;;;;;;;;;;;19.84;100.00;99081.44;4994190;28;879;-59
2023/10/25 08:45:24;;;;;;;;;;;;;;;19.70;100.00;99063.38;4994137;28;875;-60
2023/10/25 08:47:51;;;;;;;;;;;;;;;19.62;100.00;99050.19;4994096;28;827;-59
2023/10/25 09:21:26;;;;;;;;;;;;;;;20.24;100.00;99068.81;5622378;23;1533;-64
2023/10/25 09:23:57;;;;;;;;;;;;;;;20.70;100.00;99050.63;4993447;28;834;-65
2023/10/25 09:26:24;;;;;;;;;;;;;;;20.84;100.00;99043.41;4993151;28;920;-64
2023/10/25 09:28:53;;;;;;;;;;;;;;;21.07;100.00;99021.97;4993392;28;814;-64
2023/10/25 09:31:26;;;;;;;;;;;;;;;21.33;100.00;99039.59;4993115;28;826;-65
2023/10/25 09:33:56;;;;;;;;;;;;;;;21.67;100.00;99056.06;4993336;28;897;-65
2023/10/25 09:36:22;;;;;;;;;;;;;;;21.99;100.00;99025.91;4993199;28;1914;-64
2023/10/25 09:38:49;;;;;;;;;;;;;;;22.16;100.00;99021.16;4993234;28;830;-62
2023/10/25 09:41:19;;;;;;;;;;;;;;;22.16;100.00;99018.34;4993327;28;890;-65
2023/10/25 09:43:47;;;;;;;;;;;;;;;22.03;100.00;99026.44;4992247;28;1063;-65
2023/10/25 09:46:16;;;;;;;;;;;;;;;21.99;100.00;99021.03;4993008;28;898;-65
2023/10/25 09:48:47;;;;;;;;;;;;;;;22.07;100.00;99021.34;4992911;28;830;-64
2023/10/25 09:51:19;;;;;;;;;;;;;;;22.03;100.00;99001.13;4993024;28;835;-66
2023/10/25 09:54:10;;;;;;;;;;;;;;;21.89;100.00;99007.66;4992818;28;886;-64
2023/10/25 09:56:37;;;;;;;;;;;;;;;21.89;100.00;99000.00;4983005;28;1894;-67
2023/10/25 09:59:04;;;;;;;;;;;;;;;21.98;100.00;98999.06;4992804;28;902;-66
2023/10/25 10:01:31;;;;;;;;;;;;;;;22.02;100.00;98997.53;4992683;28;844;-66
2023/10/25 10:04:02;;;;;;;;;;;;;;;21.93;100.00;98992.09;4992821;28;835;-66
2023/10/25 10:06:41;;;;;;;;;;;;;;;21.98;100.00;98988.56;4992606;28;833;-66
2023/10/25 10:09:28;;;;;;;;;;;;;;;21.99;100.00;98989.31;4992872;28;807;-65
2023/10/25 10:11:59;;;;;;;;;;;;;;;22.03;100.00;98987.81;4992380;28;1222;-66
2023/10/25 10:14:28;;;;;;;;;;;;;;;21.90;100.00;98976.22;4992540;28;835;-65
2023/10/25 10:16:59;;;;;;;;;;;;;;;21.85;100.00;98976.19;4992645;28;1945;-66
2023/10/25 10:19:26;;;;;;;;;;;;;;;22.03;100.00;98979.38;4992504;28;969;-66
2023/10/25 10:22:13;;;;;;;;;;;;;;;22.17;100.00;98972.06;4992112;28;1207;-67
2023/10/25 10:24:41;;;;;;;;;;;;;;;22.09;100.00;98965.34;4992613;28;914;-65
2023/10/25 10:27:08;;;;;;;;;;;;;;;21.99;100.00;98975.25;4992375;28;993;-65
2023/10/25 10:29:34;;;;;;;;;;;;;;;22.07;100.00;98967.13;4992766;28;819;-64
2023/10/25 10:32:02;;;;;;;;;;;;;;;22.04;100.00;98971.72;4992712;28;882;-65
2023/10/25 10:34:38;;;;;;;;;;;;;;;22.08;100.00;98966.63;4992620;28;902;-64
2023/10/25 10:37:07;;;;;;;;;;;;;;;22.00;100.00;98971.97;4974681;28;1910;-64
2023/10/25 10:39:34;;;;;;;;;;;;;;;21.99;100.00;98975.25;4992498;28;902;-65
2023/10/25 10:42:03;;;;;;;;;;;;;;;22.12;100.00;98975.59;4992224;28;901;-66
2023/10/25 10:44:38;;;;;;;;;;;;;;;22.07;100.00;98976.34;4992307;28;819;-65
2023/10/25 10:47:06;;;;;;;;;;;;;;;22.20;100.00;98976.66;4992388;28;834;-65
2023/10/25 10:49:34;;;;;;;;;;;;;;;22.18;100.00;98982.03;4974655;28;1295;-66
2023/10/25 10:52:02;;;;;;;;;;;;;;;22.22;100.00;98985.41;4992236;28;823;-65
2023/10/25 10:54:29;;;;;;;;;;;;;;;22.12;100.00;98986.09;4992149;28;831;-64
2023/10/25 10:56:56;;;;;;;;;;;;;;;22.06;100.00;98988.84;4978364;28;1940;-66
2023/10/25 10:59:28;;;;;;;;;;;;;;;22.26;100.00;98984.41;4996008;28;823;-64
2023/10/25 11:01:54;;;;;;;;;;;;;;;22.42;100.00;98978.88;4996120;28;831;-65
2023/10/25 11:04:21;;;;;;;;;;;;;;;22.38;100.00;98972.72;4978401;28;1211;-66
2023/10/25 11:06:47;;;;;;;;;;;;;;;22.31;100.00;98980.84;4996043;28;843;-66
2023/10/25 11:09:14;;;;;;;;;;;;;;;22.31;100.00;98976.00;4995913;28;898;-66
2023/10/25 11:11:41;;;;;;;;;;;;;;;22.42;100.00;98978.88;4996013;28;811;-67
2023/10/25 11:14:07;;;;;;;;;;;;;;;22.51;100.00;98972.28;4995818;28;910;-65
2023/10/25 11:16:34;;;;;;;;;;;;;;;22.86;100.00;98964.72;4995631;28;1862;-66
2023/10/25 11:19:07;;;;;;;;;;;;;;;23.24;100.00;98954.81;4995640;28;835;-66
2023/10/25 11:21:34;;;;;;;;;;;;;;;23.37;100.00;98962.78;4995558;28;1260;-66
2023/10/25 11:24:06;;;;;;;;;;;;;;;23.73;100.00;98958.16;4995809;28;843;-66
2023/10/25 11:26:37;;;;;;;;;;;;;;;23.87;100.00;98952.78;4995534;28;917;-66
2023/10/25 11:29:05;;;;;;;;;;;;;;;23.86;100.00;98957.66;4995717;28;924;-67
2023/10/25 11:31:32;;;;;;;;;;;;;;;23.77;100.00;98955.88;4995518;28;830;-68
2023/10/25 11:34:00;;;;;;;;;;;;;;;23.68;100.00;98947.63;4995448;28;926;-67
2023/10/25 11:36:28;;;;;;;;;;;;;;;23.60;100.00;98938.94;4995238;28;1973;-64
2023/10/25 11:38:59;;;;;;;;;;;;;;;23.47;100.00;98944.34;4995319;28;879;-66
2023/10/25 11:41:26;;;;;;;;;;;;;;;23.65;100.00;98938.16;4995300;28;858;-65
2023/10/25 11:43:53;;;;;;;;;;;;;;;23.96;100.00;98933.53;4977920;28;839;-67
2023/10/25 11:46:20;;;;;;;;;;;;;;;23.87;94.08;98938.69;4995232;28;831;-66
2023/10/25 11:48:47;;;;;;;;;;;;;;;23.90;94.30;98937.63;4995019;28;822;-67
2023/10/25 11:51:13;;;;;;;;;;;;;;;24.11;92.95;98932.47;4995118;28;905;-66
2023/10/25 11:53:40;;;;;;;;;;;;;;;24.02;91.96;98933.50;4995028;28;890;-67
2023/10/25 11:56:07;;;;;;;;;;;;;;;24.10;92.00;98923.22;4995014;28;1943;-67
2023/10/25 11:58:34;;;;;;;;;;;;;;;24.07;91.36;98920.66;4994920;28;881;-67
2023/10/25 12:01:04;;;;;;;;;;;;;;;24.09;91.16;98915.28;4994971;28;846;-66
2023/10/25 12:03:30;;;;;;;;;;;;;;;23.97;91.12;98906.84;4977377;28;1341;-67
2023/10/25 12:05:57;;;;;;;;;;;;;;;24.02;91.29;98906.06;4994840;28;855;-67
2023/10/25 12:08:24;;;;;;;;;;;;;;;24.04;90.97;98911.19;4993964;28;842;-67
2023/10/25 12:10:51;;;;;;;;;;;;;;;24.05;91.07;98902.22;4994766;28;831;-67
2023/10/25 12:13:17;;;;;;;;;;;;;;;24.17;90.95;98905.75;4994661;28;910;-67
2023/10/25 12:15:44;;;;;;;;;;;;;;;24.07;90.60;98900.91;4994577;28;1886;-67
2023/10/25 12:18:10;;;;;;;;;;;;;;;23.95;90.84;98897.38;4994470;28;850;-67
2023/10/25 12:20:36;;;;;;;;;;;;;;;23.95;91.26;98903.00;4994710;28;922;-67
2023/10/25 12:23:03;;;;;;;;;;;;;;;24.13;90.86;98904.50;4994094;28;1284;-66
2023/10/25 12:25:30;;;;;;;;;;;;;;;24.12;90.58;98900.91;4994519;28;799;-67
2023/10/25 12:27:56;;;;;;;;;;;;;;;24.46;89.43;98903.59;4994610;28;894;-67
2023/10/25 12:30:23;;;;;;;;;;;;;;;24.82;82.03;98898.81;4994343;28;836;-68
2023/10/25 12:32:51;;;;;;;;;;;;;;;25.06;79.11;98894.53;4994630;28;855;-67
2023/10/25 12:35:17;;;;;;;;;;;;;;;25.20;77.54;98904.75;4994311;28;874;-68
2023/10/25 12:37:44;;;;;;;;;;;;;;;25.45;74.93;98894.28;4994236;28;1894;-66
2023/10/25 12:40:11;;;;;;;;;;;;;;;25.49;73.48;98893.97;4976585;28;1289;-67
2023/10/25 12:42:37;;;;;;;;;;;;;;;25.38;72.97;98892.00;4994203;28;847;-67
2023/10/25 12:45:04;;;;;;;;;;;;;;;25.36;73.04;98894.59;4993976;28;890;-67
2023/10/25 12:47:31;;;;;;;;;;;;;;;25.51;71.88;98885.72;4994037;28;874;-64
2023/10/25 12:49:57;;;;;;;;;;;;;;;25.53;71.92;98900.09;4993979;28;828;-67
2023/10/25 12:52:23;;;;;;;;;;;;;;;25.59;70.82;98895.16;4994017;28;823;-66
2023/10/25 12:54:50;;;;;;;;;;;;;;;25.55;70.62;98899.59;4993998;28;856;-68
2023/10/25 12:57:17;;;;;;;;;;;;;;;25.44;71.12;98898.38;4993911;28;1945;-68
2023/10/25 12:59:43;;;;;;;;;;;;;;;25.50;70.42;98898.34;4993747;28;1000;-66
2023/10/25 13:02:10;;;;;;;;;;;;;;;25.67;66.81;98893.28;4993886;28;870;-67
2023/10/25 13:04:36;;;;;;;;;;;;;;;25.72;64.15;98886.03;4993995;28;887;-67
2023/10/25 13:07:03;;;;;;;;;;;;;;;25.75;61.22;98887.78;4994105;28;787;-67
2023/10/25 13:09:30;;;;;;;;;;;;;;;25.77;60.86;98892.94;4993781;28;862;-67
2023/10/25 13:11:56;;;;;;;;;;;;;;;25.80;60.38;98881.31;4994086;28;763;-67
2023/10/25 13:14:23;;;;;;;;;;;;;;;25.72;60.62;98886.03;4993715;28;1269;-67
2023/10/25 13:16:50;;;;;;;;;;;;;;;25.73;60.58;98886.78;4993632;28;1878;-67
2023/10/25 13:19:16;;;;;;;;;;;;;;;25.64;60.47;98885.84;4993516;28;1167;-65
2023/10/25 13:21:43;;;;;;;;;;;;;;;25.56;61.07;98881.31;4993277;28;1353;-67
2023/10/25 13:24:10;;;;;;;;;;;;;;;25.81;60.75;98882.84;4993330;28;968;-63
2023/10/25 13:26:36;;;;;;;;;;;;;;;25.87;60.32;98892.03;4993384;28;819;-67